Time;durP1;ratioP1;P1;durP2;ratioP2;P2;SDS_P1;SDS_P2;PMS_P1;PMS_P2;Temp;Humidity;BMP_temperature;BMP_pressure;BME280_temperature;BME280_humidity;BME280_pressure;Samples;Min_cycle;Max_cycle;Signal;HPM_P1;HPM_P2
2021/04/25 00:01:39;;;;;;;15.15;10.70;;;;;;;;;;5113178;28;20024;-58
2021/04/25 00:04:14;;;;;;;15.07;10.50;;;;;;;;;;5113292;28;20111;-58
2021/04/25 00:06:41;;;;;;;14.85;9.50;;;;;;;;;;5113506;28;20030;-57
2021/04/25 00:09:08;;;;;;;22.20;11.35;;;;;;;;;;5113171;28;20023;-58
2021/04/25 00:11:35;;;;;;;17.43;10.67;;;;;;;;;;5113277;28;20020;-58
2021/04/25 00:14:02;;;;;;;12.30;10.13;;;;;;;;;;5113222;28;20080;-58
2021/04/25 00:16:29;;;;;;;15.63;10.90;;;;;;;;;;5113234;28;20069;-58
2021/04/25 00:18:58;;;;;;;14.63;9.80;;;;;;;;;;5113023;28;20039;-58
2021/04/25 00:21:25;;;;;;;13.27;10.00;;;;;;;;;;5113107;28;20024;-58
2021/04/25 00:23:52;;;;;;;16.57;10.27;;;;;;;;;;5112710;28;20060;-58
2021/04/25 00:26:19;;;;;;;19.57;9.37;;;;;;;;;;5112968;28;20076;-58
2021/04/25 00:28:46;;;;;;;12.87;9.73;;;;;;;;;;5113113;28;20072;-57
2021/04/25 00:31:12;;;;;;;13.83;9.77;;;;;;;;;;5113360;28;20027;-58
2021/04/25 00:33:39;;;;;;;15.97;10.07;;;;;;;;;;5113074;28;20028;-57
2021/04/25 00:36:06;;;;;;;12.63;9.70;;;;;;;;;;5112942;28;20030;-58
2021/04/25 00:38:33;;;;;;;19.83;11.00;;;;;;;;;;5112989;28;20028;-57
2021/04/25 00:41:00;;;;;;;14.20;11.43;;;;;;;;;;5113150;28;20024;-58
2021/04/25 00:43:27;;;;;;;17.33;10.60;;;;;;;;;;5116878;28;20020;-57
2021/04/25 00:45:54;;;;;;;17.23;10.30;;;;;;;;;;5116948;28;20027;-56
2021/04/25 00:48:22;;;;;;;17.57;10.50;;;;;;;;;;5116718;28;20027;-57
2021/04/25 00:50:49;;;;;;;22.27;11.77;;;;;;;;;;5116894;28;20023;-56
2021/04/25 00:53:16;;;;;;;19.13;11.07;;;;;;;;;;5116601;28;20027;-56
2021/04/25 00:55:43;;;;;;;15.57;10.20;;;;;;;;;;5116708;28;20023;-56
2021/04/25 00:58:10;;;;;;;18.67;10.00;;;;;;;;;;5116761;28;20047;-56
2021/04/25 01:00:36;;;;;;;13.67;8.83;;;;;;;;;;5116469;28;20039;-56
2021/04/25 01:03:03;;;;;;;14.67;8.97;;;;;;;;;;5116574;28;20028;-56
2021/04/25 01:05:30;;;;;;;16.77;10.00;;;;;;;;;;5116609;28;20034;-56
2021/04/25 01:07:57;;;;;;;13.87;10.03;;;;;;;;;;5116555;28;20028;-56
2021/04/25 01:10:24;;;;;;;15.43;9.73;;;;;;;;;;5116578;28;20027;-56
2021/04/25 01:12:51;;;;;;;15.83;9.93;;;;;;;;;;5116311;28;20035;-56
2021/04/25 01:15:21;;;;;;;15.07;9.97;;;;;;;;;;5116385;28;20023;-56
2021/04/25 01:17:48;;;;;;;14.47;10.30;;;;;;;;;;5116383;28;20467;-56
2021/04/25 01:20:24;;;;;;;15.47;10.90;;;;;;;;;;5116138;28;20186;-56
2021/04/25 01:22:57;;;;;;;17.73;10.87;;;;;;;;;;5115692;27;20516;-56
2021/04/25 01:25:26;;;;;;;14.00;9.50;;;;;;;;;;5116066;28;20028;-56
2021/04/25 01:27:53;;;;;;;16.63;10.23;;;;;;;;;;5116154;28;20022;-56
2021/04/25 01:30:22;;;;;;;16.43;9.23;;;;;;;;;;5116015;28;20027;-56
2021/04/25 01:32:49;;;;;;;15.73;8.97;;;;;;;;;;5116004;28;20019;-56
2021/04/25 01:35:21;;;;;;;11.90;8.27;;;;;;;;;;5116193;28;20027;-56
2021/04/25 01:37:48;;;;;;;12.30;8.80;;;;;;;;;;5116342;28;20081;-56
2021/04/25 01:40:15;;;;;;;14.67;9.53;;;;;;;;;;5116007;28;20039;-56
2021/04/25 01:42:42;;;;;;;16.60;9.80;;;;;;;;;;5115773;28;20114;-56
2021/04/25 01:45:16;;;;;;;16.07;8.77;;;;;;;;;;5115762;28;20024;-56
2021/04/25 01:47:44;;;;;;;16.00;9.20;;;;;;;;;;5115691;28;20099;-56
2021/04/25 01:50:10;;;;;;;16.03;10.03;;;;;;;;;;5115779;28;20023;-56
2021/04/25 01:52:37;;;;;;;13.43;9.07;;;;;;;;;;5115147;28;20465;-56
2021/04/25 01:55:04;;;;;;;18.90;10.77;;;;;;;;;;5115396;28;20027;-56
2021/04/25 01:57:31;;;;;;;16.03;9.63;;;;;;;;;;5115860;28;20051;-56
2021/04/25 01:59:58;;;;;;;24.27;10.77;;;;;;;;;;5115267;28;20113;-56
2021/04/25 02:02:25;;;;;;;15.90;10.30;;;;;;;;;;5115456;28;20091;-56
2021/04/25 02:04:51;;;;;;;13.93;9.27;;;;;;;;;;5115241;28;20035;-56
2021/04/25 02:07:19;;;;;;;15.60;9.00;;;;;;;;;;5115356;28;20048;-56
2021/04/25 02:09:46;;;;;;;12.63;8.87;;;;;;;;;;5115221;28;20118;-56
2021/04/25 02:12:14;;;;;;;12.40;8.80;;;;;;;;;;5115278;28;20112;-56
2021/04/25 02:14:42;;;;;;;18.47;9.10;;;;;;;;;;5115212;28;20378;-56
2021/04/25 02:17:09;;;;;;;13.07;9.03;;;;;;;;;;5115169;28;20038;-56
2021/04/25 02:19:36;;;;;;;32.17;14.47;;;;;;;;;;5115081;28;20066;-56
2021/04/25 02:22:11;;;;;;;14.43;10.00;;;;;;;;;;5096626;27;20463;-57
2021/04/25 02:24:38;;;;;;;20.87;11.17;;;;;;;;;;5115055;28;20448;-56
2021/04/25 02:27:05;;;;;;;19.23;12.00;;;;;;;;;;5114963;28;20550;-56
2021/04/25 02:29:32;;;;;;;17.07;10.20;;;;;;;;;;5114998;28;20031;-56
2021/04/25 02:31:59;;;;;;;13.60;9.53;;;;;;;;;;5114869;28;20032;-56
2021/04/25 02:34:25;;;;;;;16.30;10.80;;;;;;;;;;5114761;28;20497;-56
2021/04/25 02:36:52;;;;;;;14.47;10.30;;;;;;;;;;5114884;28;20021;-56
2021/04/25 02:39:19;;;;;;;13.23;9.40;;;;;;;;;;5114702;28;20063;-56
2021/04/25 02:41:46;;;;;;;12.03;8.63;;;;;;;;;;5115012;28;20059;-56
2021/04/25 02:44:13;;;;;;;16.53;9.97;;;;;;;;;;5114658;28;20390;-56
2021/04/25 02:46:40;;;;;;;15.50;9.90;;;;;;;;;;5114565;28;20035;-56
2021/04/25 02:49:07;;;;;;;17.83;9.63;;;;;;;;;;5114446;28;20020;-56
2021/04/25 02:51:34;;;;;;;14.03;10.27;;;;;;;;;;5114100;28;20157;-56
2021/04/25 02:54:01;;;;;;;15.37;11.30;;;;;;;;;;5114392;28;20035;-56
2021/04/25 02:56:28;;;;;;;18.20;11.47;;;;;;;;;;5114465;28;20023;-56
2021/04/25 02:58:55;;;;;;;18.57;10.93;;;;;;;;;;5114188;28;20112;-56
2021/04/25 03:01:22;;;;;;;16.30;11.07;;;;;;;;;;5114572;28;20027;-56
2021/04/25 03:03:48;;;;;;;16.77;9.07;;;;;;;;;;5114169;28;20125;-56
2021/04/25 03:06:15;;;;;;;17.07;11.53;;;;;;;;;;5113341;28;20390;-56
2021/04/25 03:08:42;;;;;;;20.67;10.13;;;;;;;;;;5114856;28;20024;-56
2021/04/25 03:11:09;;;;;;;15.90;10.17;;;;;;;;;;5114071;28;20024;-56
2021/04/25 03:13:36;;;;;;;15.27;10.37;;;;;;;;;;5114053;28;20027;-56
2021/04/25 03:16:03;;;;;;;14.77;9.87;;;;;;;;;;5113953;28;20023;-56
2021/04/25 03:18:29;;;;;;;15.47;9.47;;;;;;;;;;5113953;28;20023;-56
2021/04/25 03:20:56;;;;;;;16.90;10.43;;;;;;;;;;5114108;28;20032;-56
2021/04/25 03:23:23;;;;;;;17.27;10.57;;;;;;;;;;5113255;27;20043;-56
2021/04/25 03:25:50;;;;;;;20.33;10.43;;;;;;;;;;5113756;28;20118;-56
2021/04/25 03:28:17;;;;;;;16.43;11.17;;;;;;;;;;5113755;28;20463;-56
2021/04/25 03:30:43;;;;;;;17.47;11.37;;;;;;;;;;5113670;28;20028;-56
2021/04/25 03:33:10;;;;;;;17.10;12.27;;;;;;;;;;5113532;28;20019;-56
2021/04/25 03:35:37;;;;;;;16.77;11.70;;;;;;;;;;5113837;28;20061;-56
2021/04/25 03:38:04;;;;;;;16.57;11.37;;;;;;;;;;5113626;28;20027;-56
2021/04/25 03:40:31;;;;;;;17.43;11.50;;;;;;;;;;5113670;28;20035;-56
2021/04/25 03:42:57;;;;;;;20.50;10.30;;;;;;;;;;5113396;28;20058;-56
2021/04/25 03:45:24;;;;;;;15.73;11.13;;;;;;;;;;5113732;28;20019;-56
2021/04/25 03:47:52;;;;;;;17.17;9.83;;;;;;;;;;5113515;28;20458;-56
2021/04/25 03:50:21;;;;;;;12.33;9.87;;;;;;;;;;5113510;28;20403;-56
2021/04/25 03:52:48;;;;;;;19.77;10.47;;;;;;;;;;5113347;28;20030;-56
2021/04/25 03:55:16;;;;;;;14.37;10.17;;;;;;;;;;5113351;28;20058;-56
2021/04/25 03:57:43;;;;;;;18.20;11.57;;;;;;;;;;5113429;28;20059;-56
2021/04/25 04:00:11;;;;;;;15.43;11.07;;;;;;;;;;5113265;28;20372;-56
2021/04/25 04:02:38;;;;;;;21.70;10.90;;;;;;;;;;5113248;28;20020;-56
2021/04/25 04:05:05;;;;;;;18.77;10.47;;;;;;;;;;5113247;28;20118;-56
2021/04/25 04:07:32;;;;;;;21.93;11.97;;;;;;;;;;5113223;28;20028;-56
2021/04/25 04:09:59;;;;;;;17.80;10.90;;;;;;;;;;5113238;28;20031;-56
2021/04/25 04:12:26;;;;;;;18.27;11.10;;;;;;;;;;5113147;28;20062;-56
2021/04/25 04:14:53;;;;;;;19.37;10.13;;;;;;;;;;5113130;28;20117;-56
2021/04/25 04:17:20;;;;;;;16.30;10.17;;;;;;;;;;5115813;28;20040;-56
2021/04/25 04:19:46;;;;;;;20.67;10.53;;;;;;;;;;5117316;28;20054;-55
2021/04/25 04:22:13;;;;;;;17.80;11.23;;;;;;;;;;5117225;27;20027;-56
2021/04/25 04:24:40;;;;;;;15.53;10.50;;;;;;;;;;5117248;28;20036;-56
2021/04/25 04:27:07;;;;;;;13.53;10.07;;;;;;;;;;5117367;28;20069;-56
2021/04/25 04:29:34;;;;;;;16.27;10.63;;;;;;;;;;5117318;28;20425;-56
2021/04/25 04:32:01;;;;;;;14.37;11.07;;;;;;;;;;5117407;28;20482;-56
2021/04/25 04:34:27;;;;;;;16.43;10.40;;;;;;;;;;5117232;28;20047;-56
2021/04/25 04:36:54;;;;;;;14.43;9.63;;;;;;;;;;5117082;28;20438;-56
2021/04/25 04:39:21;;;;;;;16.87;10.87;;;;;;;;;;5117004;28;20036;-56
2021/04/25 04:41:49;;;;;;;15.23;11.10;;;;;;;;;;5117051;28;20055;-56
2021/04/25 04:44:17;;;;;;;20.07;11.47;;;;;;;;;;5116983;28;20110;-57
2021/04/25 04:46:43;;;;;;;16.23;10.27;;;;;;;;;;5116926;28;20505;-56
2021/04/25 04:49:10;;;;;;;13.03;10.57;;;;;;;;;;5116802;28;20024;-56
2021/04/25 04:51:37;;;;;;;16.03;11.23;;;;;;;;;;5116840;28;20023;-56
2021/04/25 04:54:04;;;;;;;13.97;9.73;;;;;;;;;;5116812;28;20508;-56
2021/04/25 04:56:31;;;;;;;14.90;10.70;;;;;;;;;;5116811;28;20028;-56
2021/04/25 04:58:57;;;;;;;15.57;9.27;;;;;;;;;;5116670;28;20031;-56
2021/04/25 05:01:24;;;;;;;14.80;10.23;;;;;;;;;;5116715;28;20032;-56
2021/04/25 05:03:51;;;;;;;15.20;10.53;;;;;;;;;;5116540;28;20019;-56
2021/04/25 05:06:18;;;;;;;16.00;10.33;;;;;;;;;;5116899;28;20375;-56
2021/04/25 05:08:48;;;;;;;15.20;10.43;;;;;;;;;;5116357;28;20020;-56
2021/04/25 05:11:18;;;;;;;15.07;10.07;;;;;;;;;;5116470;28;20023;-56
2021/04/25 05:13:45;;;;;;;15.87;9.17;;;;;;;;;;5113482;28;20039;-56
2021/04/25 05:16:11;;;;;;;16.17;8.33;;;;;;;;;;5116431;28;20051;-56
2021/04/25 05:18:40;;;;;;;10.07;7.73;;;;;;;;;;5116374;28;20023;-56
2021/04/25 05:21:07;;;;;;;13.30;8.57;;;;;;;;;;5116353;28;20114;-56
2021/04/25 05:23:33;;;;;;;12.20;8.13;;;;;;;;;;5115847;28;20043;-56
2021/04/25 05:26:00;;;;;;;14.53;10.60;;;;;;;;;;5116213;28;20028;-56
2021/04/25 05:28:29;;;;;;;12.00;9.17;;;;;;;;;;5115457;28;20024;-56
2021/04/25 05:30:57;;;;;;;15.67;9.70;;;;;;;;;;5116126;28;20032;-56
2021/04/25 05:33:24;;;;;;;16.40;9.37;;;;;;;;;;5116039;28;20424;-56
2021/04/25 05:35:50;;;;;;;11.80;9.00;;;;;;;;;;5116047;28;20034;-56
2021/04/25 05:38:17;;;;;;;11.37;7.77;;;;;;;;;;5115964;28;20068;-56
2021/04/25 05:40:44;;;;;;;13.47;7.90;;;;;;;;;;5115870;28;20031;-56
2021/04/25 05:43:11;;;;;;;15.10;8.40;;;;;;;;;;5115819;28;20031;-56
2021/04/25 05:45:37;;;;;;;13.43;8.37;;;;;;;;;;5115797;28;20031;-56
2021/04/25 05:48:05;;;;;;;9.67;7.83;;;;;;;;;;5115752;28;20462;-56
2021/04/25 05:50:32;;;;;;;13.53;9.70;;;;;;;;;;5115723;28;20031;-56
2021/04/25 05:52:59;;;;;;;18.47;8.87;;;;;;;;;;5115746;28;20023;-56
2021/04/25 05:55:26;;;;;;;12.20;7.53;;;;;;;;;;5115654;28;20028;-56
2021/04/25 05:57:53;;;;;;;11.17;7.50;;;;;;;;;;5115622;28;20110;-56
2021/04/25 06:00:23;;;;;;;9.53;7.07;;;;;;;;;;5115547;28;20123;-56
2021/04/25 06:02:50;;;;;;;10.00;7.80;;;;;;;;;;5115469;28;20028;-56
2021/04/25 06:05:17;;;;;;;11.60;6.90;;;;;;;;;;5115554;28;20027;-56
2021/04/25 06:07:44;;;;;;;12.30;7.33;;;;;;;;;;5115399;28;20433;-56
2021/04/25 06:10:11;;;;;;;11.50;6.73;;;;;;;;;;5115391;28;20031;-56
2021/04/25 06:12:38;;;;;;;9.17;6.63;;;;;;;;;;5115403;28;20027;-56
2021/04/25 06:15:05;;;;;;;10.60;7.57;;;;;;;;;;5115474;28;20459;-56
2021/04/25 06:17:33;;;;;;;13.23;8.53;;;;;;;;;;5115216;28;20024;-56
2021/04/25 06:19:59;;;;;;;10.67;8.27;;;;;;;;;;5115341;28;20386;-56
2021/04/25 06:22:32;;;;;;;11.17;7.47;;;;;;;;;;5115082;27;20463;-56
2021/04/25 06:25:06;;;;;;;11.37;6.90;;;;;;;;;;5074476;28;20044;-56
2021/04/25 06:27:33;;;;;;;12.18;8.02;;;;;;;;;;5074445;28;20032;-56
2021/04/25 06:30:00;;;;;;;10.43;7.87;;;;;;;;;;5074456;28;20024;-56
2021/04/25 06:32:27;;;;;;;12.27;8.27;;;;;;;;;;5074231;28;20502;-56
2021/04/25 06:34:53;;;;;;;12.17;7.67;;;;;;;;;;5074528;28;20126;-56
2021/04/25 06:37:20;;;;;;;14.27;7.70;;;;;;;;;;5074221;28;20043;-56
2021/04/25 06:39:47;;;;;;;13.57;7.57;;;;;;;;;;5073904;28;20074;-55
2021/04/25 06:42:14;;;;;;;11.07;7.70;;;;;;;;;;5074105;28;20016;-56
2021/04/25 06:44:41;;;;;;;11.03;7.60;;;;;;;;;;5074354;28;20028;-56
2021/04/25 06:47:08;;;;;;;15.73;8.47;;;;;;;;;;5073921;28;20040;-56
2021/04/25 06:49:34;;;;;;;12.80;7.40;;;;;;;;;;5073971;28;20036;-55
2021/04/25 06:52:01;;;;;;;12.83;7.70;;;;;;;;;;5073868;28;20086;-56
2021/04/25 06:54:28;;;;;;;11.80;8.00;;;;;;;;;;5073837;28;20082;-56
2021/04/25 06:56:55;;;;;;;11.73;7.90;;;;;;;;;;5073842;28;20020;-56
2021/04/25 06:59:22;;;;;;;11.73;7.83;;;;;;;;;;5074013;28;20067;-56
2021/04/25 07:01:49;;;;;;;11.60;6.70;;;;;;;;;;5073685;28;20478;-55
2021/04/25 07:04:15;;;;;;;11.73;6.70;;;;;;;;;;5073762;28;20555;-56
2021/04/25 07:06:42;;;;;;;10.63;7.00;;;;;;;;;;5073777;28;20115;-56
2021/04/25 07:09:09;;;;;;;10.97;7.97;;;;;;;;;;5073571;28;20036;-56
2021/04/25 07:11:36;;;;;;;10.47;6.97;;;;;;;;;;5073579;28;20031;-56
2021/04/25 07:14:03;;;;;;;11.27;7.30;;;;;;;;;;5073572;28;20031;-56
2021/04/25 07:16:31;;;;;;;8.47;5.87;;;;;;;;;;5073444;28;20544;-56
2021/04/25 07:18:57;;;;;;;9.73;6.93;;;;;;;;;;5073293;28;20380;-56
2021/04/25 07:21:24;;;;;;;12.57;6.90;;;;;;;;;;5073390;28;20030;-56
2021/04/25 07:23:51;;;;;;;10.03;6.70;;;;;;;;;;5096000;27;20181;-56
2021/04/25 07:26:18;;;;;;;11.13;6.87;;;;;;;;;;5113908;28;20027;-56
2021/04/25 07:28:45;;;;;;;11.03;6.90;;;;;;;;;;5113830;28;20026;-56
2021/04/25 07:31:12;;;;;;;11.83;7.03;;;;;;;;;;5113776;28;20034;-55
2021/04/25 07:33:39;;;;;;;11.63;7.03;;;;;;;;;;5113971;28;20031;-56
2021/04/25 07:36:09;;;;;;;13.67;7.10;;;;;;;;;;5113677;28;20106;-55
2021/04/25 07:38:37;;;;;;;8.33;6.87;;;;;;;;;;5114020;28;20031;-56
2021/04/25 07:41:04;;;;;;;10.97;7.10;;;;;;;;;;5113547;28;20031;-56
2021/04/25 07:43:31;;;;;;;9.27;6.73;;;;;;;;;;5113660;28;20016;-56
2021/04/25 07:45:58;;;;;;;10.13;6.33;;;;;;;;;;5113714;28;20382;-56
2021/04/25 07:48:25;;;;;;;8.70;6.33;;;;;;;;;;5113463;28;20420;-56
2021/04/25 07:50:52;;;;;;;8.80;6.07;;;;;;;;;;5113028;28;20062;-56
2021/04/25 07:53:19;;;;;;;7.70;5.40;;;;;;;;;;5113501;28;20031;-55
2021/04/25 07:55:46;;;;;;;7.87;5.50;;;;;;;;;;5113386;28;20267;-56
2021/04/25 07:58:12;;;;;;;9.10;5.67;;;;;;;;;;5113436;28;20036;-55
2021/04/25 08:00:39;;;;;;;8.00;5.87;;;;;;;;;;5113255;28;20122;-56
2021/04/25 08:03:06;;;;;;;11.73;5.97;;;;;;;;;;5113376;28;20076;-56
2021/04/25 08:05:34;;;;;;;9.23;6.17;;;;;;;;;;5113441;28;20019;-55
2021/04/25 08:08:01;;;;;;;7.87;5.77;;;;;;;;;;5113547;28;20474;-55
2021/04/25 08:10:28;;;;;;;10.20;6.17;;;;;;;;;;5113558;28;20027;-55
2021/04/25 08:12:55;;;;;;;8.57;6.07;;;;;;;;;;5113215;28;20348;-55
2021/04/25 08:15:23;;;;;;;11.03;6.13;;;;;;;;;;5113312;28;20031;-55
2021/04/25 08:17:56;;;;;;;9.10;6.63;;;;;;;;;;5113260;28;20023;-56
2021/04/25 08:20:42;;;;;;;9.43;6.23;;;;;;;;;;5112206;28;20044;-55
2021/04/25 08:23:10;;;;;;;11.53;5.90;;;;;;;;;;5087550;28;20552;-56
2021/04/25 08:25:36;;;;;;;11.30;6.50;;;;;;;;;;5073043;28;20032;-55
2021/04/25 08:28:03;;;;;;;11.57;6.17;;;;;;;;;;5072678;28;20046;-55
2021/04/25 08:30:30;;;;;;;8.63;5.77;;;;;;;;;;5072554;28;20094;-56
2021/04/25 08:32:57;;;;;;;12.27;5.77;;;;;;;;;;5072516;28;20025;-56
2021/04/25 08:35:24;;;;;;;10.20;6.40;;;;;;;;;;5072563;28;20123;-55
2021/04/25 08:37:51;;;;;;;9.57;6.00;;;;;;;;;;5072549;28;20400;-56
2021/04/25 08:40:18;;;;;;;10.23;6.17;;;;;;;;;;5072406;28;20483;-56
2021/04/25 08:42:44;;;;;;;10.93;5.17;;;;;;;;;;5072465;28;20029;-55
2021/04/25 08:45:15;;;;;;;7.90;5.47;;;;;;;;;;5072401;28;20025;-56
2021/04/25 08:48:01;;;;;;;9.10;5.67;;;;;;;;;;5072468;28;20059;-55
2021/04/25 08:50:30;;;;;;;11.57;6.40;;;;;;;;;;5072410;28;20386;-55
2021/04/25 08:52:58;;;;;;;9.87;6.03;;;;;;;;;;5072324;28;20479;-56
2021/04/25 08:55:25;;;;;;;9.23;5.83;;;;;;;;;;5072761;28;20429;-56
2021/04/25 08:57:52;;;;;;;16.80;7.03;;;;;;;;;;5072396;28;20229;-56
2021/04/25 09:00:19;;;;;;;11.40;6.90;;;;;;;;;;5072133;28;20114;-55
2021/04/25 09:02:47;;;;;;;9.00;6.43;;;;;;;;;;5073600;28;20025;-55
2021/04/25 09:05:14;;;;;;;9.03;5.67;;;;;;;;;;5076143;28;20091;-55
2021/04/25 09:07:54;;;;;;;9.03;5.97;;;;;;;;;;5075932;28;20055;-55
2021/04/25 09:10:21;;;;;;;8.63;5.63;;;;;;;;;;5076226;28;20024;-55
2021/04/25 09:12:47;;;;;;;9.63;6.10;;;;;;;;;;5075767;28;20099;-56
2021/04/25 09:15:14;;;;;;;11.17;6.57;;;;;;;;;;5074630;28;20025;-55
2021/04/25 09:17:50;;;;;;;8.37;5.57;;;;;;;;;;5075802;28;20021;-56
2021/04/25 09:20:17;;;;;;;10.07;6.13;;;;;;;;;;5075705;28;20032;-55
2021/04/25 09:22:46;;;;;;;9.83;6.17;;;;;;;;;;5076131;27;20383;-55
2021/04/25 09:25:15;;;;;;;11.57;6.30;;;;;;;;;;5115948;28;20112;-55
2021/04/25 09:27:43;;;;;;;8.67;6.50;;;;;;;;;;5116353;28;20023;-55
2021/04/25 09:30:10;;;;;;;9.50;6.03;;;;;;;;;;5116237;28;20439;-55
2021/04/25 09:32:37;;;;;;;8.20;5.53;;;;;;;;;;5116087;28;20084;-55
2021/04/25 09:35:08;;;;;;;9.67;5.47;;;;;;;;;;5116203;28;20020;-55
2021/04/25 09:37:35;;;;;;;8.70;5.90;;;;;;;;;;5116097;28;20028;-55
2021/04/25 09:40:06;;;;;;;9.27;6.13;;;;;;;;;;5115926;28;20044;-55
2021/04/25 09:42:33;;;;;;;8.93;5.67;;;;;;;;;;5115958;28;20027;-55
2021/04/25 09:45:02;;;;;;;10.23;6.20;;;;;;;;;;5115837;28;20030;-55
2021/04/25 09:47:30;;;;;;;8.03;5.33;;;;;;;;;;5115737;28;20077;-55
2021/04/25 09:49:57;;;;;;;10.43;6.30;;;;;;;;;;5115929;28;20027;-56
2021/04/25 09:52:37;;;;;;;10.00;5.80;;;;;;;;;;5115741;28;20038;-55
2021/04/25 09:55:15;;;;;;;11.50;6.53;;;;;;;;;;5115843;28;20055;-55
2021/04/25 09:57:42;;;;;;;13.67;6.10;;;;;;;;;;5115965;28;20035;-56
2021/04/25 10:00:09;;;;;;;10.67;6.50;;;;;;;;;;5115640;28;20027;-55
2021/04/25 10:02:55;;;;;;;9.20;6.03;;;;;;;;;;5115499;28;20274;-55
2021/04/25 10:05:22;;;;;;;9.10;6.37;;;;;;;;;;5115469;28;20032;-55
2021/04/25 10:07:48;;;;;;;8.97;6.10;;;;;;;;;;5115388;28;20030;-55
2021/04/25 10:10:16;;;;;;;10.67;6.00;;;;;;;;;;5115449;28;20417;-55
2021/04/25 10:12:43;;;;;;;9.90;5.43;;;;;;;;;;5115373;28;20022;-55
2021/04/25 10:15:11;;;;;;;11.90;5.80;;;;;;;;;;5114793;28;20352;-55
2021/04/25 10:17:42;;;;;;;9.00;6.40;;;;;;;;;;5115240;28;20093;-56
2021/04/25 10:20:09;;;;;;;9.30;5.90;;;;;;;;;;5115153;28;20127;-55
2021/04/25 10:22:39;;;;;;;11.03;6.27;;;;;;;;;;5115114;28;20106;-55
2021/04/25 10:25:07;;;;;;;10.30;6.93;;;;;;;;;;5114702;28;20556;-55
2021/04/25 10:27:34;;;;;;;13.20;6.07;;;;;;;;;;5115136;28;20106;-55
2021/04/25 10:30:03;;;;;;;11.03;6.17;;;;;;;;;;5115024;28;20127;-55
2021/04/25 10:32:31;;;;;;;10.17;5.97;;;;;;;;;;5115057;28;20059;-55
2021/04/25 10:35:13;;;;;;;11.53;6.33;;;;;;;;;;5114841;28;20023;-55
2021/04/25 10:37:41;;;;;;;16.50;6.47;;;;;;;;;;5114918;28;20032;-55
2021/04/25 10:40:30;;;;;;;11.87;6.10;;;;;;;;;;5114733;28;20039;-55
2021/04/25 10:42:58;;;;;;;8.60;5.30;;;;;;;;;;5114730;28;20055;-55
2021/04/25 10:45:33;;;;;;;11.87;6.37;;;;;;;;;;5114726;28;20114;-55
2021/04/25 10:48:18;;;;;;;15.40;7.33;;;;;;;;;;5114614;28;20420;-55
2021/04/25 10:50:46;;;;;;;12.27;6.53;;;;;;;;;;5114626;28;20030;-55
2021/04/25 10:53:23;;;;;;;9.97;6.00;;;;;;;;;;5114557;28;20020;-55
2021/04/25 10:55:51;;;;;;;9.63;6.13;;;;;;;;;;5114543;28;20019;-55
2021/04/25 10:58:22;;;;;;;10.47;6.13;;;;;;;;;;5114505;28;20016;-55
2021/04/25 11:00:49;;;;;;;11.67;7.40;;;;;;;;;;5114294;28;20036;-55
2021/04/25 11:03:22;;;;;;;13.40;7.17;;;;;;;;;;5114618;28;20031;-55
2021/04/25 11:05:49;;;;;;;9.73;5.87;;;;;;;;;;5114341;28;20111;-55
2021/04/25 11:08:16;;;;;;;10.10;6.90;;;;;;;;;;5114317;28;20023;-55
2021/04/25 11:10:54;;;;;;;9.73;6.77;;;;;;;;;;5114125;28;20475;-55
2021/04/25 11:16:20;;;;;;;12.50;7.33;;;;;;;;;;5114230;28;20102;-55
2021/04/25 11:18:53;;;;;;;10.00;7.07;;;;;;;;;;5114116;28;20027;-55
2021/04/25 11:21:29;;;;;;;11.53;6.70;;;;;;;;;;5114200;28;20382;-55
2021/04/25 11:24:19;;;;;;;18.47;8.13;;;;;;;;;;5113490;28;20043;-55
2021/04/25 11:26:47;;;;;;;10.57;5.90;;;;;;;;;;5113016;28;20055;-55
2021/04/25 11:29:15;;;;;;;10.57;6.00;;;;;;;;;;5113942;28;20479;-55
2021/04/25 11:34:34;;;;;;;9.33;6.53;;;;;;;;;;5113909;28;20066;-56
2021/04/25 11:37:07;;;;;;;9.27;6.10;;;;;;;;;;5113783;28;20248;-56
2021/04/25 11:39:35;;;;;;;9.53;6.37;;;;;;;;;;5113634;28;20032;-56
2021/04/25 11:42:03;;;;;;;8.67;5.93;;;;;;;;;;5113563;28;20409;-56
2021/04/25 11:44:33;;;;;;;9.07;5.90;;;;;;;;;;5113603;28;20084;-56
2021/04/25 11:47:01;;;;;;;10.33;6.17;;;;;;;;;;5113605;28;20019;-56
2021/04/25 11:49:32;;;;;;;9.27;6.17;;;;;;;;;;5113520;28;20027;-56
2021/04/25 11:52:08;;;;;;;10.17;6.50;;;;;;;;;;5113500;28;20034;-56
2021/04/25 11:54:35;;;;;;;9.53;5.80;;;;;;;;;;5113487;28;20731;-55
2021/04/25 11:57:12;;;;;;;9.50;6.03;;;;;;;;;;5113877;28;20028;-55
2021/04/25 11:59:59;;;;;;;9.13;6.00;;;;;;;;;;5113317;28;20288;-56
2021/04/25 12:02:27;;;;;;;10.70;6.80;;;;;;;;;;5096296;28;20271;-56
2021/04/25 12:04:58;;;;;;;11.37;7.03;;;;;;;;;;5113297;28;20031;-56
2021/04/25 12:07:36;;;;;;;11.17;7.07;;;;;;;;;;5113291;28;20248;-56
2021/04/25 12:10:09;;;;;;;14.50;7.60;;;;;;;;;;5113369;28;20260;-55
2021/04/25 12:12:36;;;;;;;9.97;6.93;;;;;;;;;;5113240;28;20244;-55
2021/04/25 12:15:02;;;;;;;11.93;7.53;;;;;;;;;;5113227;28;20260;-55
2021/04/25 12:17:30;;;;;;;10.40;6.67;;;;;;;;;;5113361;28;20244;-56
2021/04/25 12:19:57;;;;;;;8.63;6.17;;;;;;;;;;5113110;28;20288;-55
2021/04/25 12:22:24;;;;;;;12.53;7.97;;;;;;;;;;5113179;28;20248;-55
2021/04/25 12:24:55;;;;;;;10.47;7.47;;;;;;;;;;5112780;28;20292;-55
2021/04/25 12:27:21;;;;;;;8.80;6.53;;;;;;;;;;5113224;28;20269;-56
2021/04/25 12:29:48;;;;;;;13.33;7.27;;;;;;;;;;5113112;28;20264;-56
2021/04/25 12:32:22;;;;;;;12.37;7.67;;;;;;;;;;5113072;28;20595;-55
2021/04/25 12:35:03;;;;;;;12.07;6.37;;;;;;;;;;5113079;28;20626;-55
2021/04/25 12:37:37;;;;;;;14.00;7.60;;;;;;;;;;5114177;28;20256;-56
2021/04/25 12:40:05;;;;;;;12.13;8.03;;;;;;;;;;5117041;28;20450;-56
2021/04/25 12:42:32;;;;;;;13.50;8.33;;;;;;;;;;5117172;28;20259;-56
2021/04/25 12:44:58;;;;;;;13.10;8.00;;;;;;;;;;5117039;28;20263;-56
2021/04/25 12:47:29;;;;;;;16.80;8.23;;;;;;;;;;5117066;28;20657;-56
2021/04/25 12:49:56;;;;;;;13.60;8.00;;;;;;;;;;5116995;28;20252;-55
2021/04/25 12:52:34;;;;;;;14.47;7.87;;;;;;;;;;5116825;28;20248;-56
2021/04/25 12:55:01;;;;;;;16.50;8.53;;;;;;;;;;5117162;28;20599;-56
2021/04/25 12:57:29;;;;;;;17.30;8.00;;;;;;;;;;5116725;28;20024;-56
2021/04/25 12:59:56;;;;;;;13.20;7.73;;;;;;;;;;5116968;28;20035;-55
2021/04/25 13:02:31;;;;;;;14.30;8.90;;;;;;;;;;5116821;28;20604;-56
2021/04/25 13:05:04;;;;;;;15.43;8.43;;;;;;;;;;5116986;28;20236;-56
2021/04/25 13:07:38;;;;;;;18.47;9.53;;;;;;;;;;5116648;28;20399;-56
2021/04/25 13:10:04;;;;;;;15.87;8.50;;;;;;;;;;5116735;28;20474;-56
2021/04/25 13:12:33;;;;;;;16.93;9.37;;;;;;;;;;5116569;28;20034;-56
2021/04/25 13:15:03;;;;;;;15.83;9.77;;;;;;;;;;5116510;28;20023;-56
2021/04/25 13:17:34;;;;;;;19.53;11.80;;;;;;;;;;5116489;28;20031;-56
2021/04/25 13:20:02;;;;;;;22.30;13.70;;;;;;;;;;5116232;28;20040;-56
2021/04/25 13:22:29;;;;;;;27.37;16.43;;;;;;;;;;5116364;28;20440;-56
2021/04/25 13:24:56;;;;;;;25.83;15.77;;;;;;;;;;5115746;27;20052;-56
2021/04/25 13:27:24;;;;;;;28.90;17.53;;;;;;;;;;5116158;28;20364;-56
2021/04/25 13:29:51;;;;;;;32.07;20.00;;;;;;;;;;5116091;28;20475;-56
2021/04/25 13:32:21;;;;;;;25.97;17.17;;;;;;;;;;5116315;28;20113;-56
2021/04/25 13:34:48;;;;;;;24.80;16.33;;;;;;;;;;5116103;28;20020;-56
2021/04/25 13:37:15;;;;;;;24.27;15.47;;;;;;;;;;5115997;28;20046;-56
2021/04/25 13:39:42;;;;;;;22.17;14.90;;;;;;;;;;5115941;28;20047;-56
2021/04/25 13:42:09;;;;;;;24.13;15.57;;;;;;;;;;5115935;28;20073;-56
2021/04/25 13:44:37;;;;;;;19.43;11.80;;;;;;;;;;5115989;28;20043;-56
2021/04/25 13:47:04;;;;;;;18.10;12.63;;;;;;;;;;5115888;28;20028;-56
2021/04/25 13:49:31;;;;;;;19.30;11.23;;;;;;;;;;5114759;28;20421;-56
2021/04/25 13:51:57;;;;;;;15.87;11.33;;;;;;;;;;5115811;28;20030;-56
2021/04/25 13:54:24;;;;;;;15.63;10.90;;;;;;;;;;5115791;28;20050;-56
2021/04/25 13:56:51;;;;;;;19.00;10.67;;;;;;;;;;5115661;28;20055;-56
2021/04/25 13:59:18;;;;;;;13.97;8.40;;;;;;;;;;5115445;28;20031;-56
2021/04/25 14:01:45;;;;;;;20.40;11.87;;;;;;;;;;5115477;28;20028;-56
2021/04/25 14:04:11;;;;;;;24.20;13.50;;;;;;;;;;5115608;28;20103;-56
2021/04/25 14:06:39;;;;;;;19.90;13.77;;;;;;;;;;5115414;28;20032;-56
2021/04/25 14:09:07;;;;;;;22.50;14.70;;;;;;;;;;5115379;28;20020;-57
2021/04/25 14:11:34;;;;;;;19.87;14.37;;;;;;;;;;5115361;28;20032;-56
2021/04/25 14:14:01;;;;;;;22.90;12.30;;;;;;;;;;5115319;28;20027;-56
2021/04/25 14:16:28;;;;;;;18.70;12.03;;;;;;;;;;5115281;28;20024;-57
2021/04/25 14:18:55;;;;;;;21.33;13.17;;;;;;;;;;5115165;28;20168;-56
2021/04/25 14:21:23;;;;;;;18.20;11.00;;;;;;;;;;5115059;28;20063;-56
2021/04/25 14:23:49;;;;;;;19.03;11.83;;;;;;;;;;5114678;27;20039;-57
2021/04/25 14:26:16;;;;;;;16.63;11.00;;;;;;;;;;5115304;28;20027;-56
2021/04/25 14:28:43;;;;;;;22.80;11.80;;;;;;;;;;5115076;28;20486;-56
2021/04/25 14:31:10;;;;;;;15.20;10.57;;;;;;;;;;5115035;28;20096;-56
2021/04/25 14:33:36;;;;;;;15.20;10.83;;;;;;;;;;5114972;28;20071;-56
2021/04/25 14:36:05;;;;;;;17.47;9.33;;;;;;;;;;5114979;28;20027;-56
2021/04/25 14:38:32;;;;;;;16.77;11.57;;;;;;;;;;5114860;28;20462;-57
2021/04/25 14:41:03;;;;;;;15.53;10.70;;;;;;;;;;5114608;28;20478;-57